Time;durP1;ratioP1;P1;durP2;ratioP2;P2;SDS_P1;SDS_P2;PMS_P1;PMS_P2;Temp;Humidity;BMP_temperature;BMP_pressure;BME280_temperature;BME280_humidity;BME280_pressure;Samples;Min_cycle;Max_cycle;Signal;HPM_P1;HPM_P2
2021/06/10 00:01:41;;;;;;;;;9.50;9.50;;;;;22.78;56.24;100333.25;4971681;28;45573;-85
2021/06/10 00:04:06;;;;;;;;;11.00;10.00;;;;;22.62;56.68;100326.09;4964165;28;45549;-84
2021/06/10 00:06:31;;;;;;;;;9.75;9.00;;;;;22.61;56.28;100337.91;4971525;28;46858;-85
2021/06/10 00:08:57;;;;;;;;;9.25;9.25;;;;;22.53;56.93;100329.34;4961231;28;48203;-84
2021/06/10 00:11:22;;;;;;;;;9.25;9.25;;;;;22.56;57.42;100340.00;4959935;28;52795;-84
2021/06/10 00:13:47;;;;;;;;;11.75;9.25;;;;;22.44;57.41;100337.06;4963977;28;55123;-84
2021/06/10 00:16:13;;;;;;;;;8.75;8.75;;;;;22.40;57.75;100331.88;4965126;28;45476;-84
2021/06/10 00:18:40;;;;;;;;;10.25;10.25;;;;;22.41;57.84;100337.25;4964546;28;45418;-82
2021/06/10 00:21:05;;;;;;;;;10.25;10.25;;;;;22.35;58.06;100345.69;4955289;28;49292;-82
2021/06/10 00:23:31;;;;;;;;;7.75;7.25;;;;;22.29;58.38;100343.38;4967233;28;45275;-83
2021/06/10 00:25:56;;;;;;;;;9.50;9.50;;;;;22.21;58.49;100334.81;4963579;28;52503;-84
2021/06/10 00:28:21;;;;;;;;;10.75;10.75;;;;;22.22;58.35;100342.84;4977517;28;54175;-85
2021/06/10 00:30:47;;;;;;;;;10.50;9.75;;;;;22.16;59.20;100328.78;4961017;28;45497;-84
2021/06/10 00:33:12;;;;;;;;;12.00;12.00;;;;;22.20;58.89;100347.50;4962422;28;45495;-84
2021/06/10 00:35:38;;;;;;;;;9.50;9.50;;;;;22.13;59.02;100337.97;4963072;28;45527;-85
2021/06/10 00:38:04;;;;;;;;;10.75;10.00;;;;;21.89;58.70;100302.38;4963141;28;45662;-84
2021/06/10 00:40:32;;;;;;;;;11.25;10.00;;;;;22.08;58.90;100342.78;4965805;28;45611;-83
2021/06/10 00:42:58;;;;;;;;;9.00;8.50;;;;;22.01;58.75;100334.13;4963601;28;46725;-85
2021/06/10 00:45:27;;;;;;;;;9.00;9.00;;;;;21.91;59.29;100332.91;4963505;28;47463;-84
2021/06/10 00:47:53;;;;;;;;;10.75;10.75;;;;;21.93;59.48;100340.00;4981790;28;45931;-84
2021/06/10 00:50:21;;;;;;;;;12.00;12.00;;;;;21.84;58.84;100327.00;4963687;28;45512;-81
2021/06/10 00:52:47;;;;;;;;;11.00;9.75;;;;;21.82;58.80;100331.63;4963537;28;45519;-84
2021/06/10 00:55:13;;;;;;;;;8.00;8.00;;;;;21.79;58.92;100324.56;4962714;28;45902;-85
2021/06/10 00:57:39;;;;;;;;;14.00;10.00;;;;;21.85;58.55;100330.56;4959906;28;45993;-85
2021/06/10 01:00:07;;;;;;;;;10.00;8.75;;;;;21.86;58.25;100332.31;4966196;28;45573;-85
2021/06/10 01:02:35;;;;;;;;;9.25;9.00;;;;;21.78;58.41;100314.69;4962273;28;45480;-84
2021/06/10 01:05:01;;;;;;;;;8.00;8.00;;;;;21.82;58.36;100318.09;4964348;28;47496;-85
2021/06/10 01:07:41;;;;;;;;;10.00;8.75;;;;;21.79;58.26;100316.44;4947621;28;45468;-84
2021/06/10 01:10:40;;;;;;;;;11.75;9.50;;;;;21.73;58.33;100315.91;4944247;28;45671;-85
2021/06/10 01:13:34;;;;;;;;;10.25;10.00;;;;;21.59;58.06;100300.44;4959584;28;45512;-84
2021/06/10 01:16:03;;;;;;;;;9.75;9.00;;;;;21.59;58.12;100320.28;4955872;28;45541;-84
2021/06/10 01:18:30;;;;;;;;;12.00;9.00;;;;;21.50;58.11;100307.22;4953898;28;45334;-83
2021/06/10 01:20:56;;;;;;;;;7.75;7.75;;;;;21.45;58.35;100312.91;4963253;28;55276;-84
2021/06/10 01:23:36;;;;;;;;;12.00;9.25;;;;;21.41;58.31;100318.56;4960262;28;45566;-85
2021/06/10 01:26:39;;;;;;;;;11.00;10.00;;;;;21.32;58.62;100318.09;4962511;28;45348;-85
2021/06/10 01:29:09;;;;;;;;;9.00;9.00;;;;;21.21;58.71;100296.19;4963860;28;46043;-84
2021/06/10 01:31:35;;;;;;;;;11.00;9.25;;;;;21.29;58.24;100307.47;4947627;28;46198;-84
2021/06/10 01:34:05;;;;;;;;;10.00;9.75;;;;;21.25;58.20;100305.03;4966089;28;45570;-84
2021/06/10 01:36:34;;;;;;;;;9.25;9.25;;;;;21.21;57.73;100290.78;4958299;28;46833;-85
2021/06/10 01:39:05;;;;;;;;;10.00;8.50;;;;;21.30;57.87;100305.63;4978560;28;45890;-83
2021/06/10 01:41:30;;;;;;;;;10.00;8.00;;;;;21.27;57.70;100300.41;4960236;28;45386;-85
2021/06/10 01:43:57;;;;;;;;;9.75;8.75;;;;;21.20;57.54;100292.59;4959888;28;46668;-84
2021/06/10 01:46:24;;;;;;;;;9.50;8.75;;;;;21.31;57.72;100296.53;4963556;28;45614;-84
2021/06/10 01:48:49;;;;;;;;;12.00;9.50;;;;;21.22;57.36;100281.69;4964387;28;45569;-84
2021/06/10 01:51:16;;;;;;;;;9.00;8.50;;;;;21.28;57.42;100304.81;4962066;28;45573;-84
2021/06/10 01:53:43;;;;;;;;;7.00;7.00;;;;;21.24;57.17;100309.53;4964117;28;45566;-84
2021/06/10 01:56:09;;;;;;;;;9.25;8.00;;;;;21.16;57.70;100300.97;4963364;28;45484;-84
2021/06/10 01:58:37;;;;;;;;;8.25;8.25;;;;;21.10;57.31;100310.31;4962676;28;45608;-84
2021/06/10 02:01:06;;;;;;;;;10.50;8.00;;;;;21.08;57.40;100311.34;4965451;28;45549;-86
2021/06/10 02:03:32;;;;;;;;;7.50;7.50;;;;;20.88;57.25;100305.19;4964166;28;45437;-85
2021/06/10 02:05:59;;;;;;;;;8.00;8.00;;;;;20.88;57.69;100305.19;4960298;28;46246;-84
2021/06/10 02:08:24;;;;;;;;;9.75;9.00;;;;;20.81;57.64;100307.34;4968031;28;45852;-82
2021/06/10 02:10:52;;;;;;;;;11.25;9.00;;;;;20.80;57.76;100313.72;4963073;28;61076;-86
2021/06/10 02:13:28;;;;;;;;;9.00;7.50;;;;;20.78;57.90;100309.34;4963694;28;45636;-84
2021/06/10 02:15:57;;;;;;;;;10.00;10.00;;;;;20.70;57.47;100304.31;4960859;28;45525;-84
2021/06/10 02:18:22;;;;;;;;;10.75;8.50;;;;;20.55;57.28;100284.38;4969997;28;45852;-85
2021/06/10 02:20:48;;;;;;;;;8.00;8.00;;;;;20.50;57.55;100290.00;4964857;28;45628;-84
2021/06/10 02:23:14;;;;;;;;;7.00;7.00;;;;;20.63;57.47;100308.31;4962084;28;45526;-84
2021/06/10 02:25:39;;;;;;;;;8.50;7.00;;;;;20.46;57.17;100291.13;4943966;28;47459;-82
2021/06/10 02:28:06;;;;;;;;;7.75;7.75;;;;;20.54;56.94;100310.50;4963846;28;57725;-84
2021/06/10 02:30:33;;;;;;;;;8.75;7.25;;;;;20.41;57.24;100295.91;4964488;28;45548;-85
2021/06/10 02:32:59;;;;;;;;;9.75;9.50;;;;;20.48;57.12;100310.84;4964041;28;45644;-84
2021/06/10 02:35:24;;;;;;;;;7.00;7.00;;;;;20.42;56.79;100295.81;4964465;28;51176;-84
2021/06/10 02:37:51;;;;;;;;;5.75;5.75;;;;;20.48;56.33;100310.84;4964863;28;45538;-84
2021/06/10 02:40:22;;;;;;;;;10.75;8.00;;;;;20.37;56.58;100300.56;4964935;28;45472;-83
2021/06/10 02:42:48;;;;;;;;;9.00;7.50;;;;;20.41;56.33;100306.72;4967081;28;45665;-84
2021/06/10 02:45:15;;;;;;;;;8.25;7.00;;;;;20.39;55.96;100309.47;4973726;28;48432;-85
2021/06/10 02:47:41;;;;;;;;;8.50;7.75;;;;;20.32;56.49;100299.09;4964840;28;45717;-84
2021/06/10 02:50:10;;;;;;;;;7.50;7.50;;;;;20.31;56.46;100297.34;4948648;28;45735;-82
2021/06/10 02:52:36;;;;;;;;;9.25;6.00;;;;;20.22;56.65;100293.25;4965865;28;50699;-83
2021/06/10 02:55:03;;;;;;;;;7.00;6.75;;;;;20.20;56.41;100293.34;4963899;28;59478;-83
2021/06/10 02:57:29;;;;;;;;;10.25;8.00;;;;;20.21;56.63;100292.38;4965388;28;45957;-83
2021/06/10 02:59:54;;;;;;;;;7.00;7.00;;;;;20.09;56.98;100280.38;4981040;28;45787;-81
2021/06/10 03:02:21;;;;;;;;;10.25;7.50;;;;;20.01;56.73;100274.50;4965465;28;45500;-84
2021/06/10 03:04:47;;;;;;;;;8.50;7.00;;;;;20.06;57.42;100290.47;4969412;28;45606;-83
2021/06/10 03:07:18;;;;;;;;;9.00;8.75;;;;;20.01;57.26;100287.09;4967385;28;45539;-84
2021/06/10 03:09:44;;;;;;;;;8.25;6.50;;;;;19.90;57.75;100293.06;4964994;28;45488;-85
2021/06/10 03:12:12;;;;;;;;;7.50;7.50;;;;;19.79;57.66;100296.25;4971409;28;45382;-84
2021/06/10 03:14:38;;;;;;;;;6.75;6.75;;;;;19.76;57.48;100288.31;4963195;28;46689;-83
2021/06/10 03:17:04;;;;;;;;;6.75;6.75;;;;;19.77;58.02;100293.63;4963735;28;45808;-84
2021/06/10 03:19:30;;;;;;;;;7.00;7.00;;;;;19.72;58.02;100286.72;4965656;28;55850;-85
2021/06/10 03:21:56;;;;;;;;;8.25;7.00;;;;;19.67;57.99;100281.53;4968287;28;51286;-84
2021/06/10 03:24:21;;;;;;;;;7.00;7.00;;;;;19.60;58.20;100277.41;4972375;28;59880;-84
2021/06/10 03:26:47;;;;;;;;;9.75;7.75;;;;;19.56;58.09;100284.78;4966178;28;45330;-85
2021/06/10 03:29:13;;;;;;;;;7.25;7.00;;;;;19.58;57.66;100290.09;4965169;28;45578;-84
2021/06/10 03:31:39;;;;;;;;;7.25;6.25;;;;;19.56;58.41;100281.19;4966211;28;45700;-84
2021/06/10 03:34:05;;;;;;;;;6.25;6.25;;;;;19.52;58.19;100278.63;4963779;28;45438;-84
2021/06/10 03:36:30;;;;;;;;;8.00;6.00;;;;;19.54;58.19;100275.88;4962102;28;45497;-83
2021/06/10 03:38:58;;;;;;;;;7.00;6.50;;;;;19.55;58.20;100279.44;4960659;28;45607;-84
2021/06/10 03:41:24;;;;;;;;;9.25;8.00;;;;;19.48;57.45;100259.97;4961443;28;45418;-84
2021/06/10 03:43:50;;;;;;;;;6.00;6.00;;;;;19.56;58.04;100268.59;4984552;28;48581;-83
2021/06/10 03:46:16;;;;;;;;;5.50;5.50;;;;;19.55;57.64;100268.63;4963734;28;45771;-83
2021/06/10 03:48:42;;;;;;;;;6.75;6.75;;;;;19.52;57.89;100261.56;4966307;28;57837;-84
2021/06/10 03:51:15;;;;;;;;;5.50;5.50;;;;;19.38;57.67;100237.06;4967610;28;60790;-82
2021/06/10 03:53:43;;;;;;;;;7.50;6.50;;;;;19.40;57.64;100252.25;4965752;28;46643;-84
2021/06/10 03:56:08;;;;;;;;;8.00;7.00;;;;;19.40;58.39;100262.16;4965577;28;45595;-84
2021/06/10 03:58:34;;;;;;;;;5.00;5.00;;;;;19.22;58.64;100254.00;4965010;28;45505;-84
2021/06/10 04:00:59;;;;;;;;;6.50;6.50;;;;;19.21;58.12;100249.56;4968383;28;50926;-85
2021/06/10 04:03:24;;;;;;;;;4.25;4.25;;;;;19.17;57.85;100253.34;4962160;28;45509;-84
2021/06/10 04:05:50;;;;;;;;;7.00;5.00;;;;;19.11;58.08;100245.56;4964881;28;45603;-83
2021/06/10 04:08:15;;;;;;;;;7.00;6.00;;;;;19.13;57.97;100249.06;4962773;28;45505;-83
2021/06/10 04:10:41;;;;;;;;;5.00;5.00;;;;;19.14;58.20;100262.47;4966879;28;51178;-84
2021/06/10 04:13:06;;;;;;;;;5.00;4.75;;;;;19.11;57.77;100262.59;4964798;28;45567;-81
2021/06/10 04:15:31;;;;;;;;;8.00;5.25;;;;;19.10;58.18;100265.38;4967824;28;45595;-85
2021/06/10 04:17:57;;;;;;;;;5.25;5.00;;;;;19.12;58.30;100269.75;4963267;28;48215;-83
2021/06/10 04:20:22;;;;;;;;;4.75;4.25;;;;;19.13;58.36;100273.31;4967243;28;52377;-82
2021/06/10 04:22:48;;;;;;;;;5.00;5.00;;;;;19.10;58.06;100273.47;4960650;28;45553;-84
2021/06/10 04:25:13;;;;;;;;;7.00;6.00;;;;;19.09;57.92;100275.28;4962885;28;53551;-83
2021/06/10 04:27:39;;;;;;;;;6.75;6.00;;;;;19.13;58.24;100276.88;4966103;28;46244;-82
2021/06/10 04:30:06;;;;;;;;;6.25;6.25;;;;;19.16;58.45;100275.84;4970187;28;45397;-84
2021/06/10 04:32:31;;;;;;;;;5.25;4.25;;;;;19.13;58.47;100276.88;4963329;28;47177;-83
2021/06/10 04:34:57;;;;;;;;;8.00;5.00;;;;;19.17;58.44;100285.69;4963927;28;45600;-83
2021/06/10 04:37:23;;;;;;;;;4.50;4.50;;;;;19.16;58.28;100273.16;4967301;28;45461;-83
2021/06/10 04:39:48;;;;;;;;;5.50;4.00;;;;;19.30;58.43;100281.50;4962087;28;45353;-84
2021/06/10 04:42:13;;;;;;;;;5.75;4.50;;;;;19.40;57.80;100287.34;4964954;28;57263;-85
2021/06/10 04:44:39;;;;;;;;;8.50;6.25;;;;;19.42;57.42;100287.25;4964945;28;45538;-84
2021/06/10 04:47:05;;;;;;;;;5.00;5.00;;;;;19.46;57.78;100292.44;4965599;28;46260;-85
2021/06/10 04:49:34;;;;;;;;;5.00;5.00;;;;;19.49;57.45;100291.41;4964691;28;45724;-84
2021/06/10 04:51:59;;;;;;;;;5.00;5.00;;;;;19.37;57.86;100263.19;4967649;28;45938;-85
2021/06/10 04:54:25;;;;;;;;;4.00;4.00;;;;;19.54;57.72;100285.78;4963900;28;45713;-83
2021/06/10 04:56:50;;;;;;;;;7.00;4.25;;;;;19.53;57.10;100274.13;4976013;28;49700;-85
2021/06/10 04:59:15;;;;;;;;;6.50;6.00;;;;;19.56;57.48;100281.19;4961335;28;52940;-83
2021/06/10 05:01:41;;;;;;;;;4.00;4.00;;;;;19.64;57.59;100287.97;4964079;28;45614;-83
2021/06/10 05:04:06;;;;;;;;;5.00;5.00;;;;;19.74;57.68;100291.06;4966222;28;51657;-82
2021/06/10 05:06:32;;;;;;;;;7.25;5.00;;;;;19.73;57.21;100269.56;4963594;28;45445;-85
2021/06/10 05:08:57;;;;;;;;;5.75;4.25;;;;;19.81;56.29;100283.56;4964014;28;45609;-82
2021/06/10 05:11:22;;;;;;;;;7.00;5.00;;;;;19.86;56.96;100286.94;4964821;28;48007;-84
2021/06/10 05:13:48;;;;;;;;;6.50;5.00;;;;;19.78;57.05;100273.78;4960864;28;45594;-84
2021/06/10 05:16:13;;;;;;;;;6.50;4.75;;;;;19.86;56.78;100280.66;4965789;28;58226;-83
2021/06/10 05:18:38;;;;;;;;;9.75;5.25;;;;;19.87;56.45;100267.09;4961634;28;45505;-85
2021/06/10 05:21:04;;;;;;;;;5.25;5.25;;;;;19.91;56.41;100282.19;4961211;28;53645;-83
2021/06/10 05:23:30;;;;;;;;;9.00;6.25;;;;;19.74;56.56;100269.47;4961553;28;45445;-84
2021/06/10 05:25:55;;;;;;;;;4.75;4.00;;;;;19.76;57.04;100286.47;4960490;28;45693;-82
2021/06/10 05:28:20;;;;;;;;;6.00;5.00;;;;;19.54;57.38;100258.78;4960982;28;45571;-83
2021/06/10 05:30:46;;;;;;;;;5.00;5.00;;;;;19.66;57.96;100290.59;4964733;28;54232;-84
2021/06/10 05:33:11;;;;;;;;;6.00;5.25;;;;;19.58;57.54;100290.94;4988080;28;48680;-83
2021/06/10 05:35:37;;;;;;;;;7.25;4.00;;;;;19.53;57.98;100290.31;4962661;28;45562;-84
2021/06/10 05:38:02;;;;;;;;;6.00;4.25;;;;;19.49;57.90;100294.97;4961734;28;45494;-84
2021/06/10 05:40:27;;;;;;;;;5.00;5.00;;;;;19.48;58.69;100292.34;4965998;28;45540;-84
2021/06/10 05:42:53;;;;;;;;;5.25;5.25;;;;;19.57;57.73;100291.94;4963347;28;56972;-82
2021/06/10 05:45:19;;;;;;;;;4.00;4.00;;;;;19.64;57.27;100290.66;4961838;28;45515;-83
2021/06/10 05:47:44;;;;;;;;;4.00;4.00;;;;;19.69;57.38;100287.75;4967215;28;53687;-85
2021/06/10 05:50:10;;;;;;;;;5.00;5.00;;;;;19.79;57.41;100293.53;4963066;28;45459;-84
2021/06/10 05:52:36;;;;;;;;;4.25;4.25;;;;;19.79;57.50;100280.03;4966396;28;46541;-85
2021/06/10 05:55:01;;;;;;;;;5.25;5.25;;;;;20.01;57.72;100289.81;4966456;28;45516;-83
2021/06/10 05:57:26;;;;;;;;;4.25;4.25;;;;;20.04;57.09;100277.06;4971773;28;45580;-83
2021/06/10 05:59:52;;;;;;;;;6.75;6.75;;;;;20.21;57.44;100286.97;4970445;28;60321;-83
2021/06/10 06:02:17;;;;;;;;;6.00;6.00;;;;;20.35;56.65;100293.50;4967771;28;45517;-82
2021/06/10 06:04:43;;;;;;;;;6.25;4.25;;;;;20.44;57.23;100283.09;4971770;28;45484;-81
2021/06/10 06:07:09;;;;;;;;;8.00;5.00;;;;;20.58;56.51;100295.03;4949146;28;45312;-83
2021/06/10 06:09:36;;;;;;;;;8.75;6.50;;;;;20.70;56.55;100298.91;4975826;28;48214;-83
2021/06/10 06:12:02;;;;;;;;;5.00;5.00;;;;;20.71;56.58;100289.84;4959403;28;45443;-82
2021/06/10 06:14:31;;;;;;;;;6.75;5.50;;;;;20.85;56.42;100308.91;4972214;28;45394;-82
2021/06/10 06:16:58;;;;;;;;;5.25;5.25;;;;;20.87;56.86;100298.91;4970848;28;45521;-82
2021/06/10 06:19:23;;;;;;;;;6.75;6.75;;;;;20.97;56.93;100309.22;4971016;28;56547;-82
2021/06/10 06:21:48;;;;;;;;;6.00;6.00;;;;;20.98;56.87;100311.84;4974754;28;55590;-82
2021/06/10 06:24:14;;;;;;;;;6.00;6.00;;;;;21.02;56.71;100321.53;4976704;28;45820;-84
2021/06/10 06:26:41;;;;;;;;;8.00;5.75;;;;;20.98;56.70;100316.38;4975843;28;45657;-85
2021/06/10 06:29:08;;;;;;;;;6.00;6.00;;;;;20.98;56.04;100314.56;4975345;28;48439;-83
2021/06/10 06:31:33;;;;;;;;;6.75;5.25;;;;;21.11;55.98;100314.75;4975003;28;45684;-82
2021/06/10 06:33:59;;;;;;;;;8.00;6.00;;;;;21.25;55.92;100337.50;4975317;28;45398;-84
2021/06/10 06:36:24;;;;;;;;;7.75;5.50;;;;;21.30;55.50;100340.78;4967912;28;52963;-84
2021/06/10 06:38:50;;;;;;;;;5.50;5.50;;;;;21.40;54.96;100347.44;4970709;28;45563;-85
2021/06/10 06:41:15;;;;;;;;;5.75;5.00;;;;;21.45;55.60;100333.66;4956428;28;45774;-83
2021/06/10 06:43:41;;;;;;;;;8.25;6.50;;;;;21.48;55.40;100328.09;4973465;28;45535;-85
2021/06/10 06:46:06;;;;;;;;;6.00;6.00;;;;;21.61;54.92;100344.53;4964164;28;45640;-83
2021/06/10 06:48:33;;;;;;;;;6.50;6.50;;;;;21.61;54.62;100337.31;4971484;28;45948;-81
2021/06/10 06:51:00;;;;;;;;;6.00;6.00;;;;;21.59;53.83;100344.63;4972686;28;45560;-84
2021/06/10 06:53:29;;;;;;;;;6.75;5.00;;;;;21.58;53.92;100344.69;4973868;28;45433;-85
2021/06/10 06:55:59;;;;;;;;;7.25;6.00;;;;;21.46;54.15;100338.13;4975127;28;45478;-84
2021/06/10 06:58:25;;;;;;;;;6.25;5.00;;;;;21.61;53.90;100358.97;4959414;28;46085;-83
2021/06/10 07:00:52;;;;;;;;;5.75;4.00;;;;;21.66;54.02;100345.16;4970290;28;45776;-84
2021/06/10 07:03:21;;;;;;;;;7.50;6.00;;;;;21.76;53.37;100350.91;4973211;28;45899;-83
2021/06/10 07:05:47;;;;;;;;;5.25;5.00;;;;;21.81;53.69;100346.13;4962636;28;45763;-83
2021/06/10 07:08:12;;;;;;;;;5.00;5.00;;;;;21.88;53.45;100349.38;4967543;28;46515;-83
2021/06/10 07:10:38;;;;;;;;;7.25;5.50;;;;;21.97;53.76;100360.53;4970547;28;45491;-82
2021/06/10 07:13:03;;;;;;;;;6.50;5.00;;;;;22.05;53.09;100370.06;4974918;28;45609;-84
2021/06/10 07:15:29;;;;;;;;;3.75;3.75;;;;;22.07;52.92;100369.00;4973076;28;45540;-82
2021/06/10 07:17:54;;;;;;;;;5.00;4.50;;;;;22.09;53.01;100361.69;4971331;28;47213;-80
2021/06/10 07:20:20;;;;;;;;;5.50;5.50;;;;;22.18;53.19;100356.69;4973299;28;45571;-84
2021/06/10 07:22:45;;;;;;;;;5.75;4.50;;;;;22.34;53.01;100372.91;4961979;28;45919;-81
2021/06/10 07:25:11;;;;;;;;;5.25;4.75;;;;;22.33;52.54;100369.31;4973346;28;45303;-83
2021/06/10 07:27:37;;;;;;;;;5.00;4.25;;;;;22.36;51.74;100376.41;4989949;28;48122;-84
2021/06/10 07:30:04;;;;;;;;;6.25;5.25;;;;;22.39;51.99;100368.97;4971286;28;45755;-84
2021/06/10 07:32:29;;;;;;;;;4.00;4.00;;;;;22.42;51.97;100373.34;4987519;28;45562;-83
2021/06/10 07:34:55;;;;;;;;;4.75;3.25;;;;;22.49;51.91;100361.19;4973097;28;45599;-82
2021/06/10 07:37:20;;;;;;;;;5.00;4.00;;;;;22.57;51.62;100358.91;4970156;28;45497;-83
2021/06/10 07:39:46;;;;;;;;;7.50;6.50;;;;;22.62;51.93;100357.72;4976436;28;45452;-84
2021/06/10 07:42:12;;;;;;;;;8.00;5.00;;;;;22.77;51.11;100367.66;4964106;28;45453;-84
2021/06/10 07:44:37;;;;;;;;;6.00;6.00;;;;;22.85;51.27;100364.50;4974295;28;45502;-85
2021/06/10 07:47:03;;;;;;;;;5.50;5.50;;;;;22.99;50.73;100366.34;4973820;28;46024;-68
2021/06/10 07:49:29;;;;;;;;;6.00;5.00;;;;;23.06;50.51;100374.03;4971553;28;45609;-69
2021/06/10 07:51:54;;;;;;;;;4.75;3.00;;;;;23.05;49.52;100374.09;4972757;28;45867;-69
2021/06/10 07:54:19;;;;;;;;;8.00;5.25;;;;;23.06;49.79;100375.84;4965328;28;57278;-66
2021/06/10 07:56:45;;;;;;;;;9.25;8.50;;;;;23.06;49.45;100381.28;4965977;28;46286;-69
2021/06/10 07:59:11;;;;;;;;;7.00;6.00;;;;;23.03;50.19;100373.31;4964806;28;45665;-69
2021/06/10 08:01:39;;;;;;;;;4.75;4.75;;;;;23.06;49.85;100368.59;4972681;28;45723;-67
2021/06/10 08:04:05;;;;;;;;;5.50;5.00;;;;;23.08;49.23;100368.50;4973246;28;45511;-69
2021/06/10 08:06:30;;;;;;;;;5.00;5.00;;;;;23.11;49.33;100365.59;4969908;28;45711;-69
2021/06/10 08:08:56;;;;;;;;;5.25;4.00;;;;;23.17;49.43;100370.63;4973035;28;45799;-67
2021/06/10 08:11:21;;;;;;;;;4.50;3.50;;;;;23.27;49.00;100370.09;4973252;28;45325;-70
2021/06/10 08:13:46;;;;;;;;;7.00;6.00;;;;;23.29;48.84;100360.00;4957746;28;51300;-68
2021/06/10 08:16:12;;;;;;;;;4.00;4.00;;;;;23.34;48.35;100372.31;4972266;28;45901;-69
2021/06/10 08:18:37;;;;;;;;;5.00;5.00;;;;;23.31;48.94;100375.22;4968007;28;45838;-64
2021/06/10 08:21:04;;;;;;;;;4.00;4.00;;;;;23.20;48.50;100375.03;4970480;28;46129;-69
2021/06/10 08:23:30;;;;;;;;;5.25;3.50;;;;;23.20;48.92;100372.31;4972150;28;45708;-69
2021/06/10 08:25:59;;;;;;;;;3.00;3.00;;;;;23.29;48.73;100374.44;4964665;28;45508;-69
2021/06/10 08:28:25;;;;;;;;;7.25;4.00;;;;;23.39;48.46;100377.47;4947629;28;45903;-69
2021/06/10 08:30:50;;;;;;;;;6.25;4.00;;;;;23.48;48.19;100365.16;4964961;28;45463;-68
2021/06/10 08:33:17;;;;;;;;;5.00;5.00;;;;;23.55;48.78;100352.91;4970987;28;45532;-69
2021/06/10 08:35:43;;;;;;;;;4.75;4.00;;;;;23.68;48.49;100356.59;4970730;28;45955;-69
2021/06/10 08:38:09;;;;;;;;;4.25;3.75;;;;;23.74;46.35;100358.03;4965077;28;45834;-65
2021/06/10 08:40:37;;;;;;;;;4.75;4.25;;;;;23.80;46.42;100356.75;4972604;28;45659;-68
2021/06/10 08:43:03;;;;;;;;;4.00;4.00;;;;;23.92;46.47;100358.66;4988678;28;45698;-67
2021/06/10 08:45:29;;;;;;;;;7.00;5.00;;;;;24.10;45.98;100353.03;4970183;28;45748;-69
2021/06/10 08:47:55;;;;;;;;;3.75;3.75;;;;;24.24;45.12;100352.09;4973118;28;45473;-69
2021/06/10 08:50:24;;;;;;;;;3.00;3.00;;;;;24.42;43.70;100352.69;4967268;28;45534;-69
2021/06/10 08:52:58;;;;;;;;;5.25;4.00;;;;;24.66;43.10;100351.97;4973675;28;45436;-68
2021/06/10 08:55:25;;;;;;;;;3.75;3.75;;;;;24.73;44.15;100351.47;4972241;28;46292;-69
2021/06/10 08:57:51;;;;;;;;;6.25;4.00;;;;;24.77;43.95;100348.56;4970255;28;45504;-69
2021/06/10 09:00:19;;;;;;;;;3.00;3.00;;;;;24.84;44.36;100358.91;4973041;28;45591;-65
2021/06/10 09:03:00;;;;;;;;;2.75;2.75;;;;;24.84;43.86;100347.13;4967263;28;45586;-69
2021/06/10 09:05:27;;;;;;;;;6.00;3.75;;;;;24.79;43.63;100352.03;4973249;28;46004;-69
2021/06/10 09:07:56;;;;;;;;;8.75;5.00;;;;;24.72;42.87;100354.31;4973081;28;45938;-69
2021/06/10 09:10:24;;;;;;;;;5.00;3.25;;;;;24.63;42.78;100354.94;4965458;28;45388;-65
2021/06/10 09:12:55;;;;;;;;;5.25;5.00;;;;;24.60;43.73;100351.44;4968297;28;45345;-67
2021/06/10 09:15:24;;;;;;;;;6.50;4.50;;;;;24.72;43.85;100355.19;4966527;28;46155;-68
2021/06/10 09:17:50;;;;;;;;;6.00;4.25;;;;;24.95;43.14;100354.56;4972488;28;45297;-67
2021/06/10 09:20:18;;;;;;;;;4.50;4.00;;;;;25.35;42.80;100357.16;4972225;28;45559;-68
2021/06/10 09:22:43;;;;;;;;;5.00;4.25;;;;;25.75;42.06;100346.09;4972672;28;45621;-68
2021/06/10 09:25:11;;;;;;;;;7.00;5.00;;;;;26.07;42.09;100345.56;4967753;28;45432;-68
2021/06/10 09:28:00;;;;;;;;;5.00;3.25;;;;;26.34;42.40;100354.53;4970125;28;45765;-68
2021/06/10 09:30:51;;;;;;;;;5.75;5.75;;;;;26.60;41.62;100353.41;4971627;28;45425;-67
2021/06/10 09:33:19;;;;;;;;;4.25;4.25;;;;;26.67;40.45;100345.59;4973062;28;45711;-68
2021/06/10 09:35:45;;;;;;;;;5.25;4.00;;;;;26.73;40.55;100352.41;4965910;28;46276;-69
2021/06/10 09:38:19;;;;;;;;;6.00;6.00;;;;;26.88;40.15;100351.28;4965524;28;46089;-66
2021/06/10 09:40:46;;;;;;;;;6.25;4.00;;;;;26.93;40.30;100350.03;4968381;28;45539;-69
2021/06/10 09:43:12;;;;;;;;;4.50;4.50;;;;;26.95;40.55;100359.84;4961914;28;45745;-68
2021/06/10 09:45:42;;;;;;;;;4.50;4.50;;;;;26.98;41.08;100356.00;4973117;28;45956;-69
2021/06/10 09:48:07;;;;;;;;;5.00;5.00;;;;;26.95;41.91;100348.94;4970115;28;45341;-69
2021/06/10 09:50:42;;;;;;;;;6.00;5.00;;;;;26.96;40.60;100341.59;4968699;28;46481;-68
2021/06/10 09:53:18;;;;;;;;;6.00;3.25;;;;;26.96;41.09;100355.25;4972067;28;45404;-67
2021/06/10 09:55:44;;;;;;;;;5.00;5.00;;;;;27.12;41.61;100353.06;4971631;28;46618;-67
2021/06/10 09:58:15;;;;;;;;;5.75;4.75;;;;;27.38;40.55;100350.97;4970466;28;46090;-65
2021/06/10 10:00:49;;;;;;;;;6.00;6.00;;;;;27.60;40.46;100354.72;4967526;28;45883;-67
2021/06/10 10:03:30;;;;;;;;;5.00;5.00;;;;;27.71;40.48;100350.22;4966037;28;45599;-67
2021/06/10 10:06:03;;;;;;;;;3.25;3.25;;;;;27.73;41.01;100350.94;4970804;28;45534;-67
2021/06/10 10:08:29;;;;;;;;;7.00;7.00;;;;;27.81;39.27;100349.31;4970075;28;45953;-67
2021/06/10 10:10:59;;;;;;;;;6.25;5.00;;;;;27.92;40.16;100348.44;4962013;28;45638;-69
2021/06/10 10:13:29;;;;;;;;;5.00;3.25;;;;;28.16;39.28;100355.59;4969547;28;45523;-67
2021/06/10 10:15:59;;;;;;;;;6.00;4.25;;;;;28.31;39.22;100345.22;4970171;28;46449;-72
2021/06/10 10:18:25;;;;;;;;;4.00;4.00;;;;;28.34;39.36;100335.91;4971253;28;45804;-65
2021/06/10 10:20:50;;;;;;;;;2.75;2.75;;;;;28.43;39.17;100348.81;4971922;28;45534;-67
2021/06/10 10:23:16;;;;;;;;;5.00;5.00;;;;;28.41;39.35;100346.19;4965415;28;45445;-68
2021/06/10 10:25:42;;;;;;;;;6.00;5.00;;;;;28.41;39.17;100346.19;4970119;28;46372;-68
2021/06/10 10:28:10;;;;;;;;;5.50;5.00;;;;;28.36;38.97;100340.25;4966740;28;45786;-67
2021/06/10 10:30:39;;;;;;;;;5.00;5.00;;;;;28.24;38.21;100347.63;4966987;28;45333;-68
2021/06/10 10:33:24;;;;;;;;;5.50;5.00;;;;;27.96;39.42;100344.44;4970060;28;45568;-67
2021/06/10 10:35:57;;;;;;;;;5.00;5.00;;;;;27.84;39.02;100338.13;4970224;28;45854;-65
2021/06/10 10:38:34;;;;;;;;;4.00;4.00;;;;;27.75;40.01;100346.22;4969794;28;45738;-68
2021/06/10 10:41:09;;;;;;;;;7.00;5.00;;;;;27.76;39.85;100346.13;4966422;28;45431;-67
2021/06/10 10:43:34;;;;;;;;;6.00;5.00;;;;;27.80;40.96;100344.00;4983514;28;45607;-66
2021/06/10 10:46:09;;;;;;;;;5.00;5.00;;;;;27.86;40.74;100339.88;4970730;28;46099;-68
2021/06/10 10:48:42;;;;;;;;;7.50;5.00;;;;;28.02;40.67;100331.28;4968023;28;45769;-68
2021/06/10 10:51:29;;;;;;;;;6.25;6.25;;;;;28.30;38.74;100336.16;4966819;28;45516;-67
2021/06/10 10:54:00;;;;;;;;;7.50;6.00;;;;;28.50;38.52;100339.06;4965919;28;45562;-68
2021/06/10 10:56:39;;;;;;;;;5.50;5.50;;;;;28.58;38.59;100338.41;4963568;28;46104;-68
2021/06/10 10:59:16;;;;;;;;;6.50;6.00;;;;;28.83;38.23;100341.78;4973224;28;45789;-68
2021/06/10 11:02:00;;;;;;;;;6.25;6.25;;;;;29.00;38.82;100343.03;4970852;28;45385;-66
2021/06/10 11:04:49;;;;;;;;;7.50;6.75;;;;;28.96;38.57;100344.31;4979629;28;45539;-67
2021/06/10 11:07:33;;;;;;;;;7.50;6.00;;;;;29.01;38.45;100340.16;4974169;28;47240;-67
2021/06/10 11:09:59;;;;;;;;;6.50;6.50;;;;;28.96;36.83;100333.34;4974851;28;45800;-68
2021/06/10 11:12:43;;;;;;;;;7.00;7.00;;;;;28.88;38.34;100334.91;4967817;28;45616;-67
2021/06/10 11:15:37;;;;;;;;;6.50;6.50;;;;;28.90;35.91;100337.50;4971787;28;45624;-68
2021/06/10 11:18:06;;;;;;;;;7.00;6.00;;;;;29.02;37.79;100336.44;4905636;28;46182;-73
2021/06/10 11:20:37;;;;;;;;;9.50;6.25;;;;;31.92;34.80;100327.75;4912526;28;45448;-67
2021/06/10 11:23:17;;;;;;;;;7.25;5.50;;;;;36.01;28.77;100327.63;4907283;28;45404;-67
2021/06/10 11:25:46;;;;;;;;;7.00;6.50;;;;;39.04;25.32;100338.19;4894918;28;45682;-68
2021/06/10 11:28:16;;;;;;;;;8.00;6.00;;;;;41.50;23.79;100332.53;4913104;28;46024;-67